Time;durP1;ratioP1;P1;durP2;ratioP2;P2;SDS_P1;SDS_P2;PMS_P1;PMS_P2;Temp;Humidity;BMP_temperature;BMP_pressure;BME280_temperature;BME280_humidity;BME280_pressure;Samples;Min_cycle;Max_cycle;Signal;HPM_P1;HPM_P2
2023/05/01 00:00:27;;;;;;;1.90;1.60;;;;;;;4.97;100.00;100570.95;105881;1257;66048;-52
2023/05/01 00:02:55;;;;;;;4.00;1.60;;;;;;;4.99;100.00;100571.83;105833;1253;74454;-53
2023/05/01 00:05:22;;;;;;;2.30;2.10;;;;;;;5.00;100.00;100575.26;105872;1254;63155;-52
2023/05/01 00:07:49;;;;;;;2.50;2.30;;;;;;;5.00;100.00;100580.20;105923;1253;61896;-52
2023/05/01 00:10:19;;;;;;;2.40;2.30;;;;;;;5.00;100.00;100584.48;105925;1255;75485;-52
2023/05/01 00:12:46;;;;;;;4.30;2.30;;;;;;;5.00;100.00;100583.98;105895;1257;67001;-52
2023/05/01 00:15:12;;;;;;;2.20;2.00;;;;;;;5.01;100.00;100590.31;105841;1253;75169;-53
2023/05/01 00:17:40;;;;;;;5.80;2.50;;;;;;;5.01;100.00;100586.55;105810;1253;64251;-53
2023/05/01 00:20:08;;;;;;;2.80;2.50;;;;;;;5.01;100.00;100592.89;105852;1251;63134;-52
2023/05/01 00:22:35;;;;;;;3.80;2.70;;;;;;;4.99;100.00;100597.14;105907;1253;74472;-53
2023/05/01 00:25:02;;;;;;;5.20;2.80;;;;;;;4.97;100.00;100598.66;105901;1251;66904;-52
2023/05/01 00:27:29;;;;;;;10.70;2.60;;;;;;;4.96;100.00;100603.98;105822;1257;74892;-52
2023/05/01 00:29:56;;;;;;;3.30;2.70;;;;;;;4.97;100.00;100606.20;105876;1252;62619;-52
2023/05/01 00:32:24;;;;;;;5.90;2.60;;;;;;;4.96;100.00;100611.15;105721;1253;62704;-52
2023/05/01 00:34:51;;;;;;;4.70;2.70;;;;;;;4.97;100.00;100617.48;105836;1257;74492;-52
2023/05/01 00:37:18;;;;;;;3.60;2.80;;;;;;;4.97;100.00;100620.22;105900;1251;66633;-52
2023/05/01 00:39:45;;;;;;;4.20;2.70;;;;;;;4.98;100.00;100621.08;105848;1257;75344;-52
2023/05/01 00:42:12;;;;;;;4.30;2.80;;;;;;;4.97;100.00;100624.84;105814;1254;62259;-52
2023/05/01 00:44:39;;;;;;;10.50;3.10;;;;;;;4.96;100.00;100627.41;105892;1253;62087;-52
2023/05/01 00:47:06;;;;;;;4.30;2.00;;;;;;;4.95;100.00;100617.30;105673;1258;73945;-52
2023/05/01 00:49:34;;;;;;;3.90;2.60;;;;;;;4.96;100.00;100623.64;105928;1256;65634;-52
2023/05/01 00:52:01;;;;;;;4.70;2.60;;;;;;;4.95;100.00;100628.42;105863;1257;73432;-52
2023/05/01 00:54:28;;;;;;;3.10;2.00;;;;;;;4.94;100.00;100628.59;105822;1256;63694;-53
2023/05/01 00:56:55;;;;;;;2.50;2.30;;;;;;;4.95;100.00;100636.29;105853;1257;62526;-52
2023/05/01 00:59:22;;;;;;;4.40;2.40;;;;;;;4.96;100.00;100639.20;105681;1259;74109;-53
2023/05/01 01:01:49;;;;;;;2.60;2.40;;;;;;;4.96;100.00;100640.92;105874;1253;67894;-52
2023/05/01 01:04:16;;;;;;;2.30;2.10;;;;;;;4.96;100.00;100642.10;105827;1257;74157;-53
2023/05/01 01:07:05;;;;;;;3.40;1.90;;;;;;;4.95;100.00;100638.52;105632;1258;64333;-54
2023/05/01 01:09:49;;;;;;;12.00;2.40;;;;;;;4.95;100.00;100638.00;105720;1257;61617;-51
2023/05/01 01:12:54;;;;;;;5.10;2.00;;;;;;;4.96;100.00;100636.98;105826;1257;75203;-52
2023/05/01 01:15:30;;;;;;;2.70;2.30;;;;;;;4.97;100.00;100638.88;105609;1251;66550;-51
2023/05/01 01:18:04;;;;;;;5.60;2.60;;;;;;;4.98;100.00;100646.06;105872;1257;75455;-51
2023/05/01 01:20:44;;;;;;;6.20;3.10;;;;;;;4.98;100.00;100648.79;105732;1253;61987;-51
2023/05/01 01:23:14;;;;;;;5.00;2.90;;;;;;;4.97;100.00;100646.56;105901;1257;60774;-51
2023/05/01 01:26:07;;;;;;;3.30;2.90;;;;;;;4.97;100.00;100644.17;105835;1257;75474;-51
2023/05/01 01:28:43;;;;;;;3.60;2.80;;;;;;;4.97;100.00;100645.38;105919;1252;65649;-52
2023/05/01 01:31:19;;;;;;;5.90;3.40;;;;;;;4.98;100.00;100647.94;105887;1257;75343;-51
2023/05/01 01:33:50;;;;;;;2.80;2.60;;;;;;;4.99;100.00;100651.88;105887;1254;62457;-51
2023/05/01 01:36:29;;;;;;;4.00;3.50;;;;;;;4.98;100.00;100655.81;105942;1254;63402;-51
2023/05/01 01:39:06;;;;;;;3.60;3.10;;;;;;;4.96;100.00;100654.95;105881;1257;75778;-51
2023/05/01 01:41:33;;;;;;;5.20;3.60;;;;;;;4.94;100.00;100655.61;105858;1253;65690;-51
2023/05/01 01:44:05;;;;;;;9.10;3.20;;;;;;;4.94;100.00;100657.83;105631;1254;74562;-51
2023/05/01 01:46:36;;;;;;;3.40;3.10;;;;;;;4.93;100.00;100663.81;105887;1253;64930;-51
2023/05/01 01:49:05;;;;;;;7.50;3.10;;;;;;;4.95;100.00;100666.56;105732;1253;62813;-51
2023/05/01 01:51:32;;;;;;;4.10;3.40;;;;;;;4.96;100.00;100671.36;105700;1251;75214;-51
2023/05/01 01:53:59;;;;;;;5.40;3.40;;;;;;;4.96;100.00;100673.41;105696;1258;66171;-51
2023/05/01 01:56:27;;;;;;;7.00;3.50;;;;;;;4.95;100.00;100679.90;105678;1254;75262;-51
2023/05/01 01:58:54;;;;;;;6.20;3.80;;;;;;;4.96;100.00;100680.26;105717;1256;63857;-52
2023/05/01 02:01:21;;;;;;;6.90;3.50;;;;;;;4.96;100.00;100681.45;105676;1259;61567;-54
2023/05/01 02:03:48;;;;;;;6.10;3.50;;;;;;;4.98;100.00;100687.97;105844;1257;76349;-55
2023/05/01 02:06:15;;;;;;;6.00;3.60;;;;;;;5.00;100.00;100690.90;105390;1259;65818;-54
2023/05/01 02:08:43;;;;;;;7.60;3.10;;;;;;;5.00;100.00;100689.70;105664;1253;74867;-55
2023/05/01 02:11:10;;;;;;;7.60;3.10;;;;;;;5.01;100.00;100692.43;105868;1253;64431;-54
2023/05/01 02:13:37;;;;;;;5.00;3.40;;;;;;;5.02;100.00;100695.35;105694;1257;62170;-55
2023/05/01 02:16:05;;;;;;;3.50;3.10;;;;;;;5.03;100.00;100698.78;105786;1253;76859;-52
2023/05/01 02:18:32;;;;;;;4.70;3.40;;;;;;;5.02;100.00;100701.34;105702;1257;66371;-54
2023/05/01 02:20:59;;;;;;;5.40;3.30;;;;;;;5.03;100.00;100704.59;105668;1256;75701;-55
2023/05/01 02:23:27;;;;;;;4.50;3.30;;;;;;;5.03;100.00;100709.56;105666;1252;63169;-57
2023/05/01 02:25:54;;;;;;;7.00;3.50;;;;;;;5.03;100.00;100712.13;105694;1254;62138;-51
2023/05/01 02:28:22;;;;;;;6.70;4.00;;;;;;;5.03;100.00;100717.41;105828;1256;75661;-52
2023/05/01 02:30:49;;;;;;;4.40;3.60;;;;;;;5.04;100.00;100717.95;105897;1253;67454;-51
2023/05/01 02:33:16;;;;;;;10.50;3.60;;;;;;;5.04;100.00;100716.58;105823;1254;73762;-51
2023/05/01 02:35:46;;;;;;;6.40;3.90;;;;;;;5.06;100.00;100716.95;105835;1253;64592;-51
2023/05/01 02:38:15;;;;;;;6.20;3.60;;;;;;;5.06;100.00;100716.42;105740;1259;61747;-52
2023/05/01 02:40:52;;;;;;;5.00;3.70;;;;;;;5.06;100.00;100715.23;105712;1251;75326;-51
2023/05/01 02:43:20;;;;;;;9.00;3.80;;;;;;;5.06;100.00;100713.35;105722;1256;66015;-52
2023/05/01 02:45:47;;;;;;;9.20;3.50;;;;;;;5.07;100.00;100713.19;105714;1253;75185;-52
2023/05/01 02:48:17;;;;;;;8.50;4.10;;;;;;;5.09;100.00;100709.44;105678;1259;63596;-51
2023/05/01 02:50:45;;;;;;;5.40;3.50;;;;;;;5.10;100.00;100708.59;105739;1252;62759;-52
2023/05/01 02:53:12;;;;;;;6.20;3.70;;;;;;;5.09;100.00;100707.21;105878;1253;75357;-52
2023/05/01 02:55:47;;;;;;;10.00;3.10;;;;;;;5.07;100.00;100704.29;105838;1253;65480;-52
2023/05/01 02:58:16;;;;;;;6.10;3.20;;;;;;;5.08;100.00;100706.35;105704;1254;74879;-51
2023/05/01 03:00:44;;;;;;;5.80;3.40;;;;;;;5.08;100.00;100708.40;105893;1251;64206;-51
2023/05/01 03:03:11;;;;;;;5.50;3.20;;;;;;;5.10;100.00;100702.60;105913;1254;61143;-51
2023/05/01 03:05:39;;;;;;;2.90;2.70;;;;;;;5.11;100.00;100703.30;105849;1252;75612;-52
2023/05/01 03:08:08;;;;;;;7.40;3.20;;;;;;;5.11;100.00;100706.90;105894;1254;67781;-51
2023/05/01 03:10:36;;;;;;;5.60;3.10;;;;;;;5.13;100.00;100710.84;105695;1254;74287;-51
2023/05/01 03:13:03;;;;;;;7.40;2.90;;;;;;;5.16;100.00;100712.91;105708;1251;64443;-51
2023/05/01 03:15:30;;;;;;;6.50;3.10;;;;;;;5.17;100.00;100716.86;105905;1257;61732;-51
2023/05/01 03:17:57;;;;;;;3.90;3.00;;;;;;;5.18;100.00;100721.50;105671;1259;76497;-51
2023/05/01 03:20:25;;;;;;;4.60;3.50;;;;;;;5.20;100.00;100726.82;105833;1253;66328;-51
2023/05/01 03:22:53;;;;;;;10.50;3.20;;;;;;;5.20;100.00;100728.52;105710;1253;75047;-52
2023/05/01 03:25:21;;;;;;;5.80;3.30;;;;;;;5.20;100.00;100729.90;105708;1254;63431;-51
2023/05/01 03:27:48;;;;;;;4.40;3.30;;;;;;;5.21;100.00;100737.59;105736;1254;62988;-51
2023/05/01 03:30:16;;;;;;;4.20;3.40;;;;;;;5.22;100.00;100743.09;105861;1254;76174;-51
2023/05/01 03:32:43;;;;;;;5.90;3.30;;;;;;;5.24;100.00;100749.60;105738;1259;67150;-52
2023/05/01 03:35:16;;;;;;;2.90;2.60;;;;;;;5.25;100.00;100754.23;105897;1253;75380;-51
2023/05/01 03:37:44;;;;;;;3.80;2.90;;;;;;;5.27;100.00;100762.63;105685;1259;62856;-52
2023/05/01 03:40:15;;;;;;;9.40;3.40;;;;;;;5.28;100.00;100772.73;105895;1251;62513;-51
2023/05/01 03:42:54;;;;;;;5.30;3.40;;;;;;;5.30;100.00;100780.79;105852;1256;76205;-51
2023/05/01 03:45:23;;;;;;;5.40;3.10;;;;;;;5.33;100.00;100789.05;105842;1251;67518;-51
2023/05/01 03:47:51;;;;;;;5.30;2.60;;;;;;;5.35;100.00;100796.07;105904;1257;75565;-51
2023/05/01 03:50:18;;;;;;;9.20;3.20;;;;;;;5.38;100.00;100804.13;105904;1253;63014;-50
2023/05/01 03:52:47;;;;;;;3.20;2.50;;;;;;;5.39;100.00;100811.84;105986;1257;62137;-51
2023/05/01 03:55:14;;;;;;;4.00;3.00;;;;;;;5.41;100.00;100817.17;105697;1250;75258;-51
2023/05/01 03:57:42;;;;;;;7.80;2.80;;;;;;;5.43;100.00;100823.70;105858;1250;66551;-54
2023/05/01 04:00:10;;;;;;;5.70;2.90;;;;;;;5.46;100.00;100828.36;105856;1252;74444;-53
2023/05/01 04:02:44;;;;;;;14.20;2.90;;;;;;;5.50;100.00;100833.34;105870;1250;60807;-52
2023/05/01 04:05:15;;;;;;;7.00;3.30;;;;;;;5.52;100.00;100835.76;105881;1251;61424;-51
2023/05/01 04:07:46;;;;;;;8.00;2.50;;;;;;;5.59;100.00;100838.39;105851;1257;75629;-51
2023/05/01 04:10:13;;;;;;;5.00;2.70;;;;;;;5.62;100.00;100841.65;105890;1250;67130;-51
2023/05/01 04:12:46;;;;;;;4.90;2.70;;;;;;;5.66;100.00;100844.77;105838;1253;73535;-52
2023/05/01 04:15:13;;;;;;;4.80;2.50;;;;;;;5.70;100.00;100842.41;105842;1257;62468;-52
2023/05/01 04:17:42;;;;;;;2.60;2.40;;;;;;;5.76;100.00;100846.90;105811;1250;62507;-51
2023/05/01 04:20:10;;;;;;;7.60;3.10;;;;;;;5.81;100.00;100852.08;105753;1250;75258;-55
2023/05/01 04:22:37;;;;;;;3.70;2.90;;;;;;;5.84;100.00;100846.29;105859;1250;66483;-51
2023/05/01 04:25:05;;;;;;;9.00;2.60;;;;;;;5.92;100.00;100847.88;105698;1259;75139;-52
2023/05/01 04:27:32;;;;;;;2.80;2.60;;;;;;;5.96;100.00;100843.98;105945;1257;62351;-51
2023/05/01 04:29:59;;;;;;;5.00;2.40;;;;;;;5.96;100.00;100837.29;105841;1250;62562;-52
2023/05/01 04:32:27;;;;;;;3.30;2.80;;;;;;;6.00;100.00;100835.10;105925;1253;76534;-53
2023/05/01 04:34:55;;;;;;;6.80;2.40;;;;;;;6.08;100.00;100834.65;105720;1257;66998;-52
2023/05/01 04:37:22;;;;;;;3.50;2.90;;;;;;;6.15;100.00;100837.09;105890;1250;75282;-52
2023/05/01 04:39:49;;;;;;;4.30;2.80;;;;;;;6.23;100.00;100835.95;105844;1251;61505;-52
2023/05/01 04:42:17;;;;;;;3.00;2.50;;;;;;;6.29;100.00;100832.55;105878;1257;62976;-53
2023/05/01 04:44:44;;;;;;;5.10;2.70;;;;;;;6.38;100.00;100819.21;105692;1258;75614;-52
2023/05/01 04:47:12;;;;;;;4.80;2.60;;;;;;;6.45;100.00;100814.80;105924;1251;67489;-53
2023/05/01 04:49:39;;;;;;;4.70;2.90;;;;;;;6.56;100.00;100811.42;105744;1256;73860;-54
2023/05/01 04:52:06;;;;;;;5.80;2.70;;;;;;;6.65;100.00;100801.48;105773;1256;62126;-53
2023/05/01 04:54:53;;;;;;;3.50;2.30;;;;;;;6.73;100.00;100789.35;105839;1250;60856;-52
2023/05/01 04:57:21;;;;;;;4.40;2.80;;;;;;;6.80;100.00;100779.41;105720;1258;76776;-53
2023/05/01 04:59:48;;;;;;;3.30;2.70;;;;;;;6.88;100.00;100775.13;105893;1250;66403;-52
2023/05/01 05:02:15;;;;;;;3.90;2.70;;;;;;;6.96;100.00;100754.23;105694;1256;73060;-53
2023/05/01 05:04:42;;;;;;;4.10;2.60;;;;;;;6.95;100.00;100710.98;105867;1258;63395;-50
2023/05/01 05:07:10;;;;;;;4.00;2.30;;;;;;;6.97;100.00;100661.05;105720;1250;62800;-51
2023/05/01 05:10:09;;;;;;;7.10;2.30;;;;;;;7.01;100.00;100589.31;105636;1254;76436;-54
2023/05/01 05:12:37;;;;;;;3.60;2.30;;;;;;;7.13;100.00;100559.09;105919;1250;67187;-51
2023/05/01 05:15:05;;;;;;;7.00;2.50;;;;;;;7.17;100.00;100520.27;105679;1259;73914;-52
2023/05/01 05:17:32;;;;;;;8.10;2.70;;;;;;;7.25;100.00;100484.73;105722;1256;64213;-52
2023/05/01 05:19:59;;;;;;;6.60;2.20;;;;;;;7.38;100.00;100465.43;105717;1258;62498;-52
2023/05/01 05:22:26;;;;;;;6.20;2.70;;;;;;;7.54;100.00;100458.48;105732;1251;76271;-52
2023/05/01 05:25:15;;;;;;;4.00;2.60;;;;;;;7.65;100.00;100435.58;105781;1251;66831;-53
2023/05/01 05:27:42;;;;;;;4.00;2.50;;;;;;;7.64;100.00;100385.60;105848;1253;73122;-53
2023/05/01 05:30:10;;;;;;;5.50;2.30;;;;;;;7.64;100.00;100335.27;105895;1250;64299;-56
2023/05/01 05:32:37;;;;;;;4.10;2.40;;;;;;;7.74;100.00;100310.63;105712;1250;61884;-54
2023/05/01 05:35:05;;;;;;;6.10;2.20;;;;;;;7.88;100.00;100305.34;105581;1251;75984;-54
2023/05/01 05:37:32;;;;;;;5.50;2.30;;;;;;;7.90;100.00;100268.04;105620;1260;67083;-53
2023/05/01 05:39:59;;;;;;;2.50;2.20;;;;;;;7.87;100.00;100234.56;105839;1253;73319;-57
2023/05/01 05:42:28;;;;;;;3.70;2.50;;;;;;;7.95;100.00;100232.94;105751;1250;61902;-53
2023/05/01 05:44:58;;;;;;;4.60;2.50;;;;;;;8.09;100.00;100236.73;105934;1251;61459;-53
2023/05/01 05:47:25;;;;;;;4.10;2.50;;;;;;;8.09;100.00;100221.95;105839;1257;76619;-53
2023/05/01 05:49:54;;;;;;;4.60;2.80;;;;;;;7.96;100.00;100202.84;105852;1250;66330;-51
2023/05/01 05:52:22;;;;;;;4.50;2.80;;;;;;;8.02;100.00;100209.14;105730;1250;74732;-52
2023/05/01 05:54:49;;;;;;;5.70;2.60;;;;;;;8.08;100.00;100212.16;105850;1255;61906;-51
2023/05/01 05:57:16;;;;;;;4.80;3.00;;;;;;;8.14;100.00;100217.77;105863;1251;61707;-52
2023/05/01 05:59:47;;;;;;;3.10;2.80;;;;;;;8.19;100.00;100222.33;105855;1257;76399;-53
2023/05/01 06:02:14;;;;;;;4.80;2.70;;;;;;;8.23;100.00;100222.81;105752;1250;66716;-53
2023/05/01 06:04:41;;;;;;;8.60;2.60;;;;;;;8.24;100.00;100225.73;105687;1259;75248;-53
2023/05/01 06:07:09;;;;;;;4.80;2.60;;;;;;;8.11;100.00;100220.55;105920;1250;62279;-52
2023/05/01 06:09:36;;;;;;;3.00;2.60;;;;;;;8.08;100.00;100216.64;105780;1250;61093;-52
2023/05/01 06:12:04;;;;;;;11.70;2.20;;;;;;;8.16;100.00;100224.45;105913;1257;76260;-51
2023/05/01 06:14:32;;;;;;;5.30;2.50;;;;;;;8.25;100.00;100234.66;105721;1258;66807;-52
2023/05/01 06:17:00;;;;;;;4.80;2.60;;;;;;;8.18;100.00;100228.02;105883;1250;73896;-51
2023/05/01 06:19:27;;;;;;;3.50;2.50;;;;;;;8.10;100.00;100229.67;105692;1250;63027;-52
2023/05/01 06:22:02;;;;;;;3.80;2.00;;;;;;;8.16;100.00;100236.48;105882;1256;60968;-53
2023/05/01 06:24:31;;;;;;;4.50;2.30;;;;;;;8.30;100.00;100244.91;105712;1250;75299;-52
2023/05/01 06:26:59;;;;;;;2.50;2.10;;;;;;;8.42;100.00;100247.50;105920;1256;65378;-52
2023/05/01 06:29:27;;;;;;;6.10;2.40;;;;;;;8.54;100.00;100257.19;105717;1257;75235;-55
2023/05/01 06:31:54;;;;;;;2.80;2.10;;;;;;;8.60;100.00;100254.36;105838;1250;62671;-57
2023/05/01 06:34:22;;;;;;;2.60;2.10;;;;;;;8.60;100.00;100251.60;105766;1250;61837;-54
2023/05/01 06:36:51;;;;;;;6.60;2.10;;;;;;;8.60;100.00;100251.96;105851;1257;75591;-54
2023/05/01 06:39:19;;;;;;;6.10;2.50;;;;;;;8.64;100.00;100256.70;109530;1250;67106;-53
2023/05/01 06:41:46;;;;;;;8.70;2.10;;;;;;;8.73;100.00;100267.25;109589;1250;74833;-53
2023/05/01 06:44:14;;;;;;;6.20;2.10;;;;;;;8.80;100.00;100272.50;109504;1250;61003;-53
2023/05/01 06:46:41;;;;;;;6.50;2.70;;;;;;;8.88;100.00;100270.48;109688;1250;60103;-54
2023/05/01 06:49:08;;;;;;;4.40;2.30;;;;;;;9.01;100.00;100271.67;109631;1250;76228;-53
2023/05/01 06:51:35;;;;;;;3.40;2.20;;;;;;;9.00;100.00;100292.17;109544;1250;67003;-53
2023/05/01 06:54:02;;;;;;;3.60;2.50;;;;;;;9.01;100.00;100298.70;109484;1250;74409;-53
2023/05/01 06:56:31;;;;;;;4.00;1.90;;;;;;;9.23;100.00;100287.88;109618;1250;62146;-53
2023/05/01 06:58:58;;;;;;;3.50;1.90;;;;;;;9.58;100.00;100291.46;109612;1250;62398;-53
2023/05/01 07:01:25;;;;;;;3.20;1.90;;;;;;;9.75;100.00;100332.86;109530;1250;75990;-54
2023/05/01 07:03:52;;;;;;;2.10;1.90;;;;;;;9.87;100.00;100362.15;109618;1250;66757;-54
2023/05/01 07:06:19;;;;;;;7.10;2.20;;;;;;;9.93;100.00;100398.40;109655;1252;74850;-54
2023/05/01 07:08:46;;;;;;;5.20;2.50;;;;;;;10.04;100.00;100414.09;109573;1250;61295;-54
2023/05/01 07:11:13;;;;;;;2.00;1.70;;;;;;;10.22;100.00;100427.58;109616;1250;62321;-54
2023/05/01 07:13:40;;;;;;;7.60;2.10;;;;;;;10.38;100.00;100453.19;109633;1250;75740;-54
2023/05/01 07:16:07;;;;;;;3.30;2.20;;;;;;;10.45;100.00;100470.17;109642;1250;64906;-54
2023/05/01 07:21:56;;;;;;;4.70;1.80;;;;;;;10.88;100.00;100465.05;102738;1291;600716;-52
2023/05/01 07:24:23;;;;;;;4.00;1.90;;;;;;;11.09;100.00;100476.04;105032;1267;62172;-53
2023/05/01 07:26:51;;;;;;;3.10;2.30;;;;;;;11.26;100.00;100499.90;105074;1265;62533;-51
2023/05/01 07:29:18;;;;;;;3.30;1.70;;;;;;;11.36;100.00;100524.55;105106;1270;73601;-53
2023/05/01 07:31:45;;;;;;;4.60;2.10;;;;;;;11.40;100.00;100534.50;105659;1257;66300;-52
2023/05/01 07:34:12;;;;;;;2.20;1.60;;;;;;;11.43;100.00;100545.32;105761;1260;74299;-54
2023/05/01 07:36:40;;;;;;;3.50;1.90;;;;;;;11.50;100.00;100551.77;105819;1256;228764;-52
2023/05/01 07:39:07;;;;;;;4.90;1.80;;;;;;;11.59;100.00;100558.30;105978;1251;62534;-53
2023/05/01 07:41:34;;;;;;;3.10;1.80;;;;;;;11.62;100.00;100576.05;105948;1257;73814;-54
2023/05/01 07:44:02;;;;;;;2.40;2.00;;;;;;;11.64;100.00;100584.65;105945;1256;64913;-53
2023/05/01 07:46:29;;;;;;;2.50;2.20;;;;;;;11.61;100.00;100591.44;105945;1253;74188;-53
2023/05/01 07:48:56;;;;;;;3.30;1.80;;;;;;;11.65;100.00;100592.58;105978;1257;61779;-54
2023/05/01 07:51:24;;;;;;;2.80;1.90;;;;;;;11.77;100.00;100585.74;105966;1257;61342;-53
2023/05/01 07:53:51;;;;;;;7.30;2.20;;;;;;;11.86;100.00;100601.48;105974;1256;74187;-52
2023/05/01 07:56:18;;;;;;;1.80;1.70;;;;;;;11.85;100.00;100618.63;105982;1251;66026;-53
2023/05/01 07:58:45;;;;;;;2.50;1.50;;;;;;;11.90;100.00;100623.19;105956;1258;75237;-54
2023/05/01 08:01:12;;;;;;;6.30;1.90;;;;;;;11.99;100.00;100622.81;105968;1257;62698;-54
2023/05/01 08:03:39;;;;;;;9.40;2.70;;;;;;;12.18;100.00;100620.89;105899;1251;62494;-52
2023/05/01 08:06:06;;;;;;;4.20;2.20;;;;;;;12.38;100.00;100623.88;105969;1251;74484;-53
2023/05/01 08:08:33;;;;;;;6.90;2.00;;;;;;;12.65;100.00;100615.64;105963;1257;66645;-53
2023/05/01 08:11:01;;;;;;;2.50;1.60;;;;;;;12.89;97.16;100610.70;105856;1251;72566;-54
2023/05/01 08:13:28;;;;;;;3.40;2.20;;;;;;;12.97;85.40;100604.45;105891;1256;61189;-53
2023/05/01 08:15:57;;;;;;;3.20;1.90;;;;;;;12.92;82.17;100615.48;105898;1257;62246;-53
2023/05/01 08:18:25;;;;;;;2.60;1.80;;;;;;;12.97;75.84;100626.09;105989;1257;74440;-53
2023/05/01 08:20:52;;;;;;;6.30;2.20;;;;;;;13.12;73.26;100633.88;105954;1254;67442;-52
2023/05/01 08:23:19;;;;;;;1.90;1.70;;;;;;;13.34;81.26;100655.30;105863;1254;73188;-54
2023/05/01 08:25:49;;;;;;;2.30;1.40;;;;;;;13.66;73.13;100624.98;105842;1254;61467;-53
2023/05/01 08:28:19;;;;;;;7.50;1.70;;;;;;;13.76;67.45;100616.19;105828;1252;61705;-53
2023/05/01 08:30:50;;;;;;;2.40;1.80;;;;;;;13.87;66.89;100627.31;105889;1254;74476;-54
2023/05/01 08:33:17;;;;;;;5.40;1.70;;;;;;;13.99;65.06;100619.84;105843;1254;67105;-54
2023/05/01 08:35:44;;;;;;;3.20;1.60;;;;;;;14.08;64.32;100620.45;105825;1254;75106;-52
2023/05/01 08:38:12;;;;;;;1.40;1.40;;;;;;;14.11;65.41;100655.92;105868;1254;62710;-54
2023/05/01 08:40:40;;;;;;;3.50;2.40;;;;;;;14.26;64.55;100638.65;105881;1258;63140;-54
2023/05/01 08:43:07;;;;;;;3.60;2.00;;;;;;;14.47;62.49;100610.57;105713;1257;75506;-53
2023/05/01 08:45:36;;;;;;;3.30;1.80;;;;;;;14.51;62.85;100639.27;105753;1260;67100;-53
2023/05/01 08:48:07;;;;;;;4.10;2.20;;;;;;;14.55;65.07;100679.27;105889;1255;74110;-53
2023/05/01 08:50:38;;;;;;;2.90;2.00;;;;;;;14.73;63.97;100641.73;105697;1259;62152;-53
2023/05/01 08:53:05;;;;;;;6.30;1.70;;;;;;;14.98;65.20;100660.00;105648;1257;61672;-53
2023/05/01 08:55:33;;;;;;;3.30;1.60;;;;;;;15.09;61.18;100584.91;105872;1257;74302;-55
2023/05/01 08:58:02;;;;;;;4.70;2.20;;;;;;;14.82;60.52;100617.44;105943;1254;65691;-55
2023/05/01 09:00:30;;;;;;;1.90;1.70;;;;;;;14.73;62.80;100673.16;105556;1257;75034;-54
2023/05/01 09:02:58;;;;;;;7.50;2.00;;;;;;;14.87;61.24;100633.63;105791;1257;61692;-53
2023/05/01 09:05:25;;;;;;;2.80;1.90;;;;;;;14.84;60.46;100633.39;105887;1257;61765;-56
2023/05/01 09:07:52;;;;;;;5.20;2.20;;;;;;;14.58;60.95;100672.58;105680;1252;74201;-53
2023/05/01 09:10:19;;;;;;;2.20;2.00;;;;;;;14.40;60.71;100666.00;105858;1254;66465;-53
2023/05/01 09:12:50;;;;;;;2.40;2.10;;;;;;;14.28;59.94;100655.95;105827;1257;74282;-53
2023/05/01 09:15:18;;;;;;;3.70;1.80;;;;;;;14.13;61.51;100689.53;105711;1260;62511;-53
2023/05/01 09:17:45;;;;;;;3.60;1.70;;;;;;;14.15;61.93;100698.52;105850;1257;61423;-54
2023/05/01 09:20:12;;;;;;;4.10;1.90;;;;;;;14.27;61.43;100673.33;105964;1254;75192;-53
2023/05/01 09:22:40;;;;;;;4.30;2.10;;;;;;;14.47;61.61;100679.34;105664;1254;66804;-53
2023/05/01 09:25:09;;;;;;;3.50;1.80;;;;;;;14.66;60.98;100658.24;105707;1259;74906;-52
2023/05/01 09:27:39;;;;;;;7.40;2.10;;;;;;;14.63;59.16;100627.77;105854;1253;62120;-53
2023/05/01 09:30:07;;;;;;;4.30;2.40;;;;;;;14.44;57.42;100609.62;105853;1253;62502;-53
2023/05/01 09:32:34;;;;;;;5.60;1.80;;;;;;;14.28;58.54;100668.63;105833;1257;74402;-53
2023/05/01 09:35:10;;;;;;;3.40;2.00;;;;;;;14.28;60.70;100713.57;105825;1257;66119;-53
2023/05/01 09:37:37;;;;;;;4.30;2.40;;;;;;;14.40;59.57;100676.80;105886;1253;74952;-52
2023/05/01 09:40:08;;;;;;;2.90;2.30;;;;;;;14.31;59.58;100682.77;105724;1257;62843;-53
2023/05/01 09:42:37;;;;;;;2.30;2.00;;;;;;;14.36;60.80;100703.29;105855;1257;62574;-54
2023/05/01 09:45:13;;;;;;;2.10;2.00;;;;;;;14.56;60.04;100688.96;105863;1252;74178;-54
2023/05/01 09:47:42;;;;;;;2.00;1.80;;;;;;;14.87;60.83;100701.90;105853;1254;65201;-54
2023/05/01 09:53:20;;;;;;;4.70;2.20;;;;;;;15.10;57.00;100621.38;102736;1293;601571;-53
2023/05/01 09:55:59;;;;;;;5.40;1.80;;;;;;;15.00;57.08;100637.02;104761;1267;61691;-52
2023/05/01 09:58:27;;;;;;;2.20;2.00;;;;;;;14.88;56.61;100640.69;105099;1265;61510;-53
2023/05/01 10:00:54;;;;;;;3.20;1.70;;;;;;;14.99;57.21;100667.61;104872;1269;74831;-53
2023/05/01 10:03:21;;;;;;;4.30;1.60;;;;;;;15.20;56.22;100621.55;104848;1272;66315;-52
2023/05/01 10:05:49;;;;;;;3.90;2.00;;;;;;;15.30;53.69;100531.68;104666;1267;231282;-54
2023/05/01 10:08:16;;;;;;;8.30;2.10;;;;;;;15.17;53.95;100578.22;105160;1263;61562;-54
2023/05/01 10:10:43;;;;;;;4.20;2.00;;;;;;;15.17;55.56;100657.45;105140;1264;61986;-54
2023/05/01 10:13:16;;;;;;;6.20;2.00;;;;;;;15.22;54.77;100628.93;105170;1267;73676;-53
2023/05/01 10:15:47;;;;;;;5.00;2.00;;;;;;;15.33;57.31;100730.83;105158;1263;65750;-53
2023/05/01 10:18:14;;;;;;;8.20;2.70;;;;;;;15.26;58.51;100746.16;105271;1264;74205;-52
2023/05/01 10:20:41;;;;;;;9.20;2.40;;;;;;;15.07;60.09;100764.52;105015;1265;61797;-52
2023/05/01 10:23:09;;;;;;;2.80;2.30;;;;;;;15.05;60.52;100744.05;105045;1264;62820;-55
2023/05/01 10:25:37;;;;;;;8.10;2.20;;;;;;;15.12;59.92;100726.83;105036;1269;73692;-53
2023/05/01 10:28:05;;;;;;;4.00;2.10;;;;;;;15.27;59.77;100709.78;104801;1272;67173;-53
2023/05/01 10:30:32;;;;;;;8.80;2.60;;;;;;;15.33;59.87;100726.13;105020;1269;75179;-53
2023/05/01 10:33:00;;;;;;;6.70;2.70;;;;;;;15.36;60.64;100735.59;104894;1264;61680;-53
2023/05/01 10:35:32;;;;;;;4.70;2.50;;;;;;;15.56;60.34;100718.56;104846;1265;63104;-54
2023/05/01 10:38:20;;;;;;;7.40;2.80;;;;;;;15.60;58.45;100675.47;104883;1264;74700;-55
2023/05/01 10:40:49;;;;;;;4.50;3.00;;;;;;;15.35;59.19;100719.29;104996;1269;66365;-58
2023/05/01 10:43:29;;;;;;;9.60;3.50;;;;;;;15.22;59.31;100723.20;105020;1268;73454;-53
2023/05/01 10:46:09;;;;;;;5.80;3.40;;;;;;;15.21;60.80;100748.94;105007;1269;62818;-54
2023/05/01 10:48:36;;;;;;;4.20;3.10;;;;;;;15.21;60.63;100739.55;104976;1269;61824;-54
2023/05/01 10:51:10;;;;;;;3.60;3.00;;;;;;;15.26;62.11;100757.13;104983;1264;74595;-54
2023/05/01 10:53:38;;;;;;;11.40;3.60;;;;;;;15.42;61.95;100736.77;105048;1263;67056;-52
2023/05/01 10:56:26;;;;;;;6.40;3.30;;;;;;;15.44;60.47;100699.32;105697;1254;74907;-52
2023/05/01 10:59:03;;;;;;;8.70;3.60;;;;;;;15.43;61.68;100743.50;105690;1254;62572;-53
2023/05/01 11:01:38;;;;;;;6.90;3.00;;;;;;;15.60;61.94;100724.85;105734;1254;61805;-53
2023/05/01 11:04:07;;;;;;;21.60;4.10;;;;;;;15.63;61.73;100728.20;105731;1254;74527;-53
2023/05/01 11:06:34;;;;;;;4.60;3.40;;;;;;;15.72;61.51;100709.09;105712;1259;67086;-53
2023/05/01 11:09:57;;;;;;;8.30;3.40;;;;;;;15.84;61.60;100715.15;105748;1260;75014;-53
2023/05/01 11:12:44;;;;;;;9.90;3.00;;;;;;;15.86;61.24;100711.41;105628;1254;61723;-53
2023/05/01 11:15:12;;;;;;;5.30;3.30;;;;;;;15.86;60.65;100700.60;105694;1259;61969;-53
2023/05/01 11:17:39;;;;;;;4.20;3.10;;;;;;;15.86;63.98;100753.50;105690;1260;75081;-53
2023/05/01 11:20:10;;;;;;;7.60;3.50;;;;;;;16.02;62.19;100692.57;105699;1259;67170;-53
2023/05/01 11:22:39;;;;;;;7.80;3.30;;;;;;;15.85;61.55;100704.83;105707;1254;74447;-52
2023/05/01 11:25:23;;;;;;;9.20;3.40;;;;;;;15.60;62.68;100722.23;105700;1258;61865;-52
2023/05/01 11:27:55;;;;;;;5.90;2.90;;;;;;;15.39;66.74;100749.39;105740;1254;62767;-53
2023/05/01 11:30:22;;;;;;;7.70;3.30;;;;;;;15.29;68.12;100736.14;105739;1254;74448;-53
2023/05/01 11:32:50;;;;;;;6.90;3.40;;;;;;;15.29;71.14;100733.55;105673;1253;66991;-53